Time;durP1;ratioP1;P1;durP2;ratioP2;P2;SDS_P1;SDS_P2;PMS_P1;PMS_P2;Temp;Humidity;BMP_temperature;BMP_pressure;BME280_temperature;BME280_humidity;BME280_pressure;Samples;Min_cycle;Max_cycle;Signal;HPM_P1;HPM_P2
2021/03/23 00:00:47;;;;;;;12.40;6.97;;;4.50;95.30;;;;;;4434563;32;20177;-64
2021/03/23 00:03:15;;;;;;;12.07;7.40;;;4.50;94.90;;;;;;4435056;32;20158;-62
2021/03/23 00:05:43;;;;;;;12.77;7.20;;;4.50;95.00;;;;;;4436847;32;20233;-64
2021/03/23 00:08:22;;;;;;;13.90;7.17;;;4.40;95.00;;;;;;4435960;32;20262;-64
2021/03/23 00:10:49;;;;;;;12.37;6.67;;;4.40;95.10;;;;;;4439775;32;20143;-64
2021/03/23 00:13:15;;;;;;;10.63;6.33;;;4.40;95.30;;;;;;4439014;32;20474;-64
2021/03/23 00:15:42;;;;;;;9.80;6.73;;;4.50;95.40;;;;;;4437096;32;20560;-64
2021/03/23 00:18:10;;;;;;;13.20;7.67;;;4.60;95.30;;;;;;4437979;32;20521;-66
2021/03/23 00:20:36;;;;;;;10.93;7.03;;;4.80;95.30;;;;;;4436011;32;20596;-68
2021/03/23 00:23:03;;;;;;;14.73;6.40;;;4.90;95.00;;;;;;4435751;32;20233;-64
2021/03/23 00:25:30;;;;;;;9.50;6.67;;;5.10;94.70;;;;;;4436800;32;20644;-67
2021/03/23 00:27:56;;;;;;;9.93;6.83;;;5.20;94.50;;;;;;4437648;32;20164;-64
2021/03/23 00:30:23;;;;;;;10.80;6.70;;;5.30;94.40;;;;;;4438305;32;20170;-63
2021/03/23 00:32:50;;;;;;;10.23;7.27;;;5.40;94.20;;;;;;4439532;32;20196;-63
2021/03/23 00:35:16;;;;;;;9.77;6.50;;;5.50;94.10;;;;;;4439423;32;20466;-64
2021/03/23 00:37:43;;;;;;;13.43;6.37;;;5.50;94.00;;;;;;4434479;32;20227;-63
2021/03/23 00:40:15;;;;;;;8.40;6.17;;;5.60;93.90;;;;;;4430407;32;20147;-63
2021/03/23 00:42:42;;;;;;;13.60;6.47;;;5.70;93.90;;;;;;4437479;32;20218;-63
2021/03/23 00:45:09;;;;;;;9.23;6.40;;;5.70;93.80;;;;;;4433178;32;20657;-63
2021/03/23 00:47:36;;;;;;;12.20;6.80;;;5.80;93.70;;;;;;4435520;32;20212;-64
2021/03/23 00:50:02;;;;;;;9.90;6.47;;;5.80;93.60;;;;;;4438795;32;20250;-64
2021/03/23 00:52:29;;;;;;;11.53;7.03;;;5.80;93.50;;;;;;4438137;32;20571;-65
2021/03/23 00:54:55;;;;;;;10.17;6.37;;;5.90;93.30;;;;;;4437832;32;20226;-63
2021/03/23 00:57:21;;;;;;;10.33;6.67;;;5.90;93.30;;;;;;4438288;32;20155;-63
2021/03/23 00:59:48;;;;;;;10.63;6.40;;;6.00;93.40;;;;;;4438899;32;20218;-63
2021/03/23 01:02:15;;;;;;;9.53;6.20;;;6.00;93.30;;;;;;4435077;32;20195;-65
2021/03/23 01:04:41;;;;;;;10.17;7.07;;;6.00;93.20;;;;;;4434688;32;20181;-64
2021/03/23 01:07:07;;;;;;;10.90;7.10;;;6.00;93.10;;;;;;4439524;32;20637;-63
2021/03/23 01:09:34;;;;;;;13.40;8.20;;;6.10;93.10;;;;;;4439096;32;20194;-64
2021/03/23 01:12:00;;;;;;;10.60;7.20;;;6.10;93.10;;;;;;4437248;32;20238;-65
2021/03/23 01:14:26;;;;;;;12.60;7.97;;;6.20;93.00;;;;;;4437662;32;20219;-63
2021/03/23 01:16:54;;;;;;;12.70;8.57;;;6.20;92.80;;;;;;4439712;32;20222;-63
2021/03/23 01:19:21;;;;;;;11.30;7.77;;;6.20;92.80;;;;;;4437569;32;20618;-63
2021/03/23 01:21:47;;;;;;;15.07;8.13;;;6.20;92.40;;;;;;4437102;32;20239;-63
2021/03/23 01:24:13;;;;;;;13.30;8.57;;;6.20;92.30;;;;;;4437052;32;20226;-63
2021/03/23 01:26:39;;;;;;;16.90;9.07;;;6.20;92.10;;;;;;4438512;32;20222;-63
2021/03/23 01:29:06;;;;;;;15.70;8.50;;;6.30;92.00;;;;;;4436616;32;20155;-63
2021/03/23 01:31:32;;;;;;;15.43;9.27;;;6.30;92.20;;;;;;4436886;32;20190;-62
2021/03/23 01:33:59;;;;;;;12.77;8.43;;;6.30;92.20;;;;;;4437268;32;20222;-63
2021/03/23 01:36:25;;;;;;;15.07;8.77;;;6.30;92.10;;;;;;4438346;32;20234;-64
2021/03/23 01:38:51;;;;;;;14.50;8.70;;;6.30;92.20;;;;;;4437678;32;20226;-63
2021/03/23 01:41:18;;;;;;;14.30;8.57;;;6.30;92.00;;;;;;4436964;32;20218;-63
2021/03/23 01:43:44;;;;;;;14.13;8.10;;;6.30;92.10;;;;;;4436185;32;20222;-63
2021/03/23 01:46:33;;;;;;;14.03;7.63;;;6.30;91.90;;;;;;4438020;32;20187;-63
2021/03/23 01:49:01;;;;;;;14.10;9.03;;;6.30;91.90;;;;;;4436601;32;20169;-63
2021/03/23 01:51:28;;;;;;;14.87;8.97;;;6.20;91.90;;;;;;4436244;32;20549;-64
2021/03/23 01:53:59;;;;;;;16.60;8.70;;;6.10;92.00;;;;;;4436161;32;20147;-63
2021/03/23 01:56:26;;;;;;;14.40;8.93;;;6.10;92.00;;;;;;4436408;32;20483;-64
2021/03/23 01:58:55;;;;;;;18.70;9.17;;;6.10;92.20;;;;;;4429334;32;20571;-64
2021/03/23 02:01:21;;;;;;;15.07;9.63;;;6.10;92.30;;;;;;4436100;32;20163;-64
2021/03/23 02:03:49;;;;;;;15.27;9.30;;;6.10;92.20;;;;;;4436423;32;20155;-64
2021/03/23 02:06:33;;;;;;;24.03;9.10;;;6.10;92.20;;;;;;4434172;32;20642;-64
2021/03/23 02:09:01;;;;;;;17.80;9.07;;;6.10;92.20;;;;;;4436192;32;20258;-64
2021/03/23 02:11:29;;;;;;;14.30;8.77;;;6.10;92.30;;;;;;4435343;32;20213;-63
2021/03/23 02:13:57;;;;;;;14.70;8.57;;;6.10;92.40;;;;;;4430750;32;20217;-64
2021/03/23 02:16:24;;;;;;;13.37;9.93;;;6.10;92.40;;;;;;4425716;32;20258;-64
2021/03/23 02:18:50;;;;;;;15.90;8.73;;;6.20;92.30;;;;;;4427290;32;20230;-64
2021/03/23 02:21:19;;;;;;;16.33;9.60;;;6.20;92.30;;;;;;4436929;32;20166;-64
2021/03/23 02:23:47;;;;;;;16.43;8.83;;;6.10;92.40;;;;;;4436922;32;20229;-64
2021/03/23 02:26:16;;;;;;;13.33;9.47;;;6.20;92.40;;;;;;4436469;32;20204;-64
2021/03/23 02:28:52;;;;;;;14.47;9.63;;;6.20;92.40;;;;;;4436101;32;20170;-64
2021/03/23 02:31:24;;;;;;;15.90;8.93;;;6.30;92.40;;;;;;4435958;32;20147;-63
2021/03/23 02:33:50;;;;;;;17.23;9.40;;;6.30;92.20;;;;;;4436912;32;20540;-63
2021/03/23 02:36:18;;;;;;;15.87;8.93;;;6.30;92.20;;;;;;4431589;32;20230;-63
2021/03/23 02:38:44;;;;;;;17.50;9.50;;;6.30;92.20;;;;;;4426275;32;20673;-64
2021/03/23 02:41:11;;;;;;;19.63;9.50;;;6.20;92.20;;;;;;4436131;32;20268;-62
2021/03/23 02:43:37;;;;;;;17.00;10.07;;;6.20;92.30;;;;;;4435473;32;20197;-64
2021/03/23 02:46:03;;;;;;;17.77;9.97;;;6.20;92.40;;;;;;4437180;32;20191;-64
2021/03/23 02:48:30;;;;;;;20.90;10.60;;;6.30;92.40;;;;;;4433762;32;20246;-62
2021/03/23 02:50:56;;;;;;;17.10;10.60;;;6.20;92.40;;;;;;4430303;32;20234;-64
2021/03/23 02:53:24;;;;;;;20.03;10.83;;;6.20;92.50;;;;;;4435567;32;20163;-64
2021/03/23 02:55:50;;;;;;;18.37;10.67;;;6.20;92.50;;;;;;4430693;32;20281;-64
2021/03/23 02:58:17;;;;;;;18.03;10.43;;;6.10;92.50;;;;;;4433378;32;20185;-63
2021/03/23 03:00:43;;;;;;;17.63;11.20;;;6.10;92.90;;;;;;4435395;32;20166;-63
2021/03/23 03:03:10;;;;;;;20.80;11.50;;;6.10;92.80;;;;;;4437243;32;20177;-63
2021/03/23 03:05:36;;;;;;;16.07;11.07;;;6.10;92.80;;;;;;4434835;32;20231;-64
2021/03/23 03:08:03;;;;;;;22.07;11.73;;;6.10;92.80;;;;;;4433660;32;20236;-63
2021/03/23 03:10:30;;;;;;;23.10;11.73;;;6.10;92.90;;;;;;4435307;32;20280;-64
2021/03/23 03:12:58;;;;;;;22.90;12.43;;;6.00;92.80;;;;;;4435176;32;20194;-64
2021/03/23 03:15:24;;;;;;;17.80;11.50;;;6.00;92.90;;;;;;4435339;32;20155;-67
2021/03/23 03:17:51;;;;;;;19.73;12.20;;;6.00;93.00;;;;;;4435648;32;20206;-65
2021/03/23 03:20:18;;;;;;;22.43;11.97;;;6.00;93.10;;;;;;4436527;32;20233;-64
2021/03/23 03:22:44;;;;;;;22.07;12.63;;;6.00;93.10;;;;;;4436037;32;20497;-65
2021/03/23 03:25:12;;;;;;;22.27;12.83;;;6.00;93.40;;;;;;4435252;32;20265;-65
2021/03/23 03:27:40;;;;;;;21.70;12.77;;;6.10;93.20;;;;;;4435641;32;20234;-65
2021/03/23 03:30:09;;;;;;;21.03;12.67;;;6.10;93.30;;;;;;4435117;32;20203;-67
2021/03/23 03:32:35;;;;;;;23.97;12.37;;;6.10;93.40;;;;;;4436907;32;20605;-65
2021/03/23 03:35:03;;;;;;;24.87;13.90;;;6.00;93.40;;;;;;4435226;32;20170;-64
2021/03/23 03:37:29;;;;;;;23.67;13.07;;;6.00;93.30;;;;;;4436720;32;20630;-63
2021/03/23 03:39:56;;;;;;;25.13;13.57;;;6.00;93.30;;;;;;4437176;32;20674;-63
2021/03/23 03:42:22;;;;;;;20.83;14.63;;;6.00;93.20;;;;;;4424350;32;20549;-65
2021/03/23 03:44:49;;;;;;;24.13;14.47;;;6.00;93.30;;;;;;4434900;32;20223;-63
2021/03/23 03:47:15;;;;;;;23.57;14.37;;;6.00;93.40;;;;;;4436035;32;20520;-65
2021/03/23 03:49:42;;;;;;;25.43;14.00;;;6.00;93.60;;;;;;4426453;32;20241;-65
2021/03/23 03:52:09;;;;;;;23.43;14.30;;;5.90;93.60;;;;;;4435494;32;20226;-62
2021/03/23 03:54:35;;;;;;;20.13;13.47;;;5.90;93.50;;;;;;4434319;32;20210;-62
2021/03/23 03:57:02;;;;;;;23.70;14.90;;;5.90;93.60;;;;;;4434680;32;20222;-63
2021/03/23 03:59:28;;;;;;;25.03;15.20;;;5.80;93.70;;;;;;4437392;32;20198;-64
2021/03/23 04:01:56;;;;;;;28.73;15.13;;;5.80;93.60;;;;;;4435371;32;20139;-63
2021/03/23 04:04:22;;;;;;;23.70;15.20;;;5.90;93.70;;;;;;4435229;32;20165;-65
2021/03/23 04:06:48;;;;;;;26.80;15.27;;;5.80;93.60;;;;;;4434355;32;20257;-62
2021/03/23 04:09:14;;;;;;;26.43;15.83;;;5.90;93.70;;;;;;4435259;32;20241;-64
2021/03/23 04:11:41;;;;;;;29.67;17.20;;;5.90;93.70;;;;;;4434897;32;20273;-65
2021/03/23 04:14:07;;;;;;;29.00;16.13;;;5.90;93.70;;;;;;4434579;32;20527;-64
2021/03/23 04:16:33;;;;;;;28.53;17.00;;;6.00;93.70;;;;;;4434414;32;20166;-67
2021/03/23 04:19:00;;;;;;;27.50;16.73;;;6.00;93.60;;;;;;4433217;32;20191;-64
2021/03/23 04:21:27;;;;;;;29.73;16.70;;;6.00;93.50;;;;;;4435937;32;20665;-66
2021/03/23 04:23:53;;;;;;;32.13;18.23;;;6.00;93.60;;;;;;4434359;32;20159;-63
2021/03/23 04:26:19;;;;;;;25.63;17.27;;;6.10;93.50;;;;;;4434560;32;20167;-65
2021/03/23 04:28:45;;;;;;;30.20;18.43;;;6.10;93.50;;;;;;4428767;32;20222;-64
2021/03/23 04:31:30;;;;;;;30.37;17.43;;;6.10;93.60;;;;;;4434530;32;20260;-67
2021/03/23 04:33:56;;;;;;;29.93;17.80;;;6.10;93.50;;;;;;4435332;32;20700;-64
2021/03/23 04:36:23;;;;;;;29.60;17.93;;;6.10;93.40;;;;;;4430062;32;20238;-68
2021/03/23 04:38:50;;;;;;;28.43;17.77;;;6.10;93.50;;;;;;4425232;32;20195;-64
2021/03/23 04:41:16;;;;;;;29.47;17.40;;;6.20;93.30;;;;;;4434705;32;20226;-64
2021/03/23 04:43:44;;;;;;;30.67;18.63;;;6.20;93.30;;;;;;4434986;32;20146;-65
2021/03/23 04:46:11;;;;;;;28.40;18.10;;;6.20;93.30;;;;;;4436452;32;20250;-63
2021/03/23 04:48:38;;;;;;;34.40;18.70;;;6.20;93.40;;;;;;4431346;32;20172;-67
2021/03/23 04:51:07;;;;;;;30.03;18.43;;;6.20;93.40;;;;;;4435619;32;20163;-65
2021/03/23 04:53:36;;;;;;;33.43;21.03;;;6.20;93.50;;;;;;4436694;32;20166;-64
2021/03/23 04:56:04;;;;;;;33.77;19.37;;;6.20;93.40;;;;;;4437421;32;20139;-61
2021/03/23 04:58:30;;;;;;;35.23;20.33;;;6.20;93.60;;;;;;4435990;32;20226;-66
2021/03/23 05:00:58;;;;;;;33.03;21.03;;;6.20;93.50;;;;;;4436573;32;20222;-65
2021/03/23 05:03:31;;;;;;;40.93;21.20;;;6.10;93.60;;;;;;4425364;32;20274;-66
2021/03/23 05:06:03;;;;;;;33.80;19.60;;;6.10;93.60;;;;;;4433728;32;20139;-62
2021/03/23 05:08:30;;;;;;;32.63;20.33;;;6.10;93.70;;;;;;4437417;32;20175;-64
2021/03/23 05:10:57;;;;;;;33.43;21.87;;;6.10;93.70;;;;;;4438748;32;20172;-65
2021/03/23 05:13:24;;;;;;;32.23;20.63;;;6.20;93.70;;;;;;4436877;32;20256;-67
2021/03/23 05:15:50;;;;;;;39.80;22.47;;;6.20;93.80;;;;;;4434913;32;20171;-65
2021/03/23 05:18:17;;;;;;;38.17;21.57;;;6.20;93.80;;;;;;4435739;32;20265;-65
2021/03/23 05:20:44;;;;;;;35.23;21.27;;;6.10;93.80;;;;;;4435955;32;20238;-67
2021/03/23 05:23:12;;;;;;;34.37;22.07;;;6.10;93.70;;;;;;4426872;32;20148;-65
2021/03/23 05:25:38;;;;;;;36.93;21.60;;;6.10;93.70;;;;;;4429562;32;20147;-64
2021/03/23 05:28:05;;;;;;;42.77;23.67;;;6.00;93.90;;;;;;4438109;32;20237;-62
2021/03/23 05:30:32;;;;;;;44.30;24.03;;;5.90;94.10;;;;;;4436173;32;20218;-65
2021/03/23 05:32:58;;;;;;;38.03;23.67;;;6.00;94.20;;;;;;4434530;32;20243;-67
2021/03/23 05:35:25;;;;;;;44.47;23.97;;;6.10;94.20;;;;;;4435091;32;20234;-62
2021/03/23 05:37:51;;;;;;;45.47;27.33;;;6.00;94.20;;;;;;4436589;32;20202;-63
2021/03/23 05:40:19;;;;;;;43.77;24.83;;;6.10;94.40;;;;;;4435254;32;20162;-63
2021/03/23 05:42:55;;;;;;;55.40;25.90;;;6.20;94.30;;;;;;4437997;32;20204;-65
2021/03/23 05:45:31;;;;;;;45.13;25.60;;;6.30;94.20;;;;;;4421767;32;20543;-64
2021/03/23 05:48:14;;;;;;;59.93;30.30;;;6.30;94.20;;;;;;4435569;32;20487;-63
2021/03/23 05:50:43;;;;;;;56.27;31.50;;;6.40;94.30;;;;;;4428960;32;20179;-62
2021/03/23 05:53:15;;;;;;;60.97;33.33;;;6.40;94.70;;;;;;4436824;32;20203;-63
2021/03/23 05:55:44;;;;;;;58.47;33.67;;;6.50;95.00;;;;;;4435521;32;20265;-67
2021/03/23 05:58:19;;;;;;;57.57;32.80;;;6.40;95.00;;;;;;4436116;32;20150;-64
2021/03/23 06:00:55;;;;;;;67.97;34.97;;;6.50;94.90;;;;;;4437375;32;20158;-66
2021/03/23 06:03:26;;;;;;;54.30;31.00;;;6.50;95.20;;;;;;4438259;32;20613;-64
2021/03/23 06:05:56;;;;;;;64.20;34.87;;;6.50;95.20;;;;;;4437609;32;20210;-62
2021/03/23 06:08:28;;;;;;;58.17;32.10;;;6.50;95.20;;;;;;4439348;32;20221;-64
2021/03/23 06:11:32;;;;;;;76.60;37.90;;;6.50;95.10;;;;;;4437723;32;20220;-64
2021/03/23 06:14:13;;;;;;;65.37;34.60;;;6.60;95.60;;;;;;4440426;32;20608;-65
2021/03/23 06:16:48;;;;;;;67.77;36.30;;;6.50;95.80;;;;;;4423245;32;20170;-67
2021/03/23 06:19:24;;;;;;;76.43;36.10;;;6.50;95.80;;;;;;4425242;32;20344;-63
2021/03/23 06:21:53;;;;;;;85.47;40.57;;;6.60;96.00;;;;;;4438431;32;20262;-67
2021/03/23 06:24:30;;;;;;;75.00;37.90;;;6.50;96.10;;;;;;4428866;32;20169;-65
2021/03/23 06:27:08;;;;;;;80.87;37.97;;;6.50;96.20;;;;;;4433772;32;20242;-66
2021/03/23 06:30:10;;;;;;;72.07;35.77;;;6.60;96.10;;;;;;4436339;32;20323;-66
2021/03/23 06:32:47;;;;;;;72.87;38.13;;;6.70;95.90;;;;;;4435621;32;20217;-65
2021/03/23 06:35:16;;;;;;;73.67;37.77;;;6.70;96.00;;;;;;4435463;32;20147;-65
2021/03/23 06:37:43;;;;;;;78.10;39.43;;;6.70;95.90;;;;;;4434626;32;20225;-67
2021/03/23 06:40:12;;;;;;;76.67;36.77;;;6.70;96.00;;;;;;4435362;32;20620;-63
2021/03/23 06:42:40;;;;;;;94.10;44.17;;;6.70;96.10;;;;;;4435759;32;20226;-66
2021/03/23 06:45:17;;;;;;;99.70;45.53;;;6.70;96.10;;;;;;4434508;32;20140;-66
2021/03/23 06:47:45;;;;;;;98.47;45.20;;;6.70;96.10;;;;;;4433645;32;20642;-62
2021/03/23 06:50:31;;;;;;;95.37;43.53;;;6.70;96.30;;;;;;4430530;32;20249;-66
2021/03/23 06:53:13;;;;;;;107.57;50.17;;;6.80;96.20;;;;;;4433234;32;20204;-63
2021/03/23 06:55:41;;;;;;;122.60;55.63;;;6.80;96.30;;;;;;4422713;32;20253;-65
2021/03/23 06:58:24;;;;;;;130.00;55.13;;;6.70;96.50;;;;;;4433620;32;20488;-64
2021/03/23 07:01:09;;;;;;;129.27;55.83;;;6.70;96.60;;;;;;4432740;32;20163;-65
2021/03/23 07:03:37;;;;;;;126.57;53.70;;;6.70;96.70;;;;;;4431442;32;20218;-66
2021/03/23 07:06:18;;;;;;;133.90;55.87;;;6.70;96.60;;;;;;4433214;32;20471;-68
2021/03/23 07:08:44;;;;;;;146.07;57.50;;;6.70;97.00;;;;;;4435139;32;20549;-63
2021/03/23 07:11:10;;;;;;;127.67;58.10;;;6.80;96.70;;;;;;4433907;32;20198;-65
2021/03/23 07:13:41;;;;;;;130.03;56.00;;;6.90;96.80;;;;;;4432266;32;20574;-68
2021/03/23 07:16:26;;;;;;;128.23;54.43;;;7.00;96.70;;;;;;4435155;32;20624;-66
2021/03/23 07:19:06;;;;;;;126.53;52.80;;;7.00;96.70;;;;;;4433668;32;20179;-65
2021/03/23 07:21:40;;;;;;;121.60;53.43;;;7.10;96.50;;;;;;4432940;32;20162;-63
2021/03/23 07:24:09;;;;;;;110.40;51.20;;;7.20;96.30;;;;;;4429714;32;20215;-68
2021/03/23 07:26:36;;;;;;;119.67;53.57;;;7.30;96.20;;;;;;4433653;32;20709;-67
2021/03/23 07:29:26;;;;;;;126.37;51.63;;;7.40;96.00;;;;;;4434801;32;20151;-64
2021/03/23 07:32:17;;;;;;;116.87;51.90;;;7.50;95.90;;;;;;4432367;32;20233;-67
2021/03/23 07:35:08;;;;;;;121.43;53.50;;;7.60;95.70;;;;;;4429977;32;20681;-64
2021/03/23 07:37:47;;;;;;;117.70;53.73;;;7.80;95.50;;;;;;4433979;32;20214;-64
2021/03/23 07:40:28;;;;;;;116.63;52.70;;;7.90;95.40;;;;;;4432464;32;20226;-65
2021/03/23 07:43:05;;;;;;;111.37;49.87;;;8.00;95.10;;;;;;4433112;32;20289;-70
2021/03/23 07:45:42;;;;;;;113.43;52.33;;;8.00;95.10;;;;;;4431576;32;20269;-68
2021/03/23 07:48:14;;;;;;;106.43;49.77;;;8.10;95.00;;;;;;4423726;32;20209;-64
2021/03/23 07:50:45;;;;;;;102.40;48.63;;;8.20;94.70;;;;;;4420608;32;20182;-65
2021/03/23 07:53:16;;;;;;;110.70;49.53;;;8.20;94.70;;;;;;4427782;32;20221;-67
2021/03/23 07:55:42;;;;;;;105.23;48.03;;;8.30;94.70;;;;;;4426712;32;20144;-64
2021/03/23 07:58:31;;;;;;;107.83;48.53;;;8.50;94.50;;;;;;4428139;32;21083;-64
2021/03/23 08:01:07;;;;;;;106.93;49.80;;;8.50;94.40;;;;;;4426560;32;20230;-65
2021/03/23 08:03:57;;;;;;;108.37;47.83;;;8.50;94.20;;;;;;4428749;32;20696;-69
2021/03/23 08:06:28;;;;;;;101.07;45.83;;;8.50;94.20;;;;;;4425024;32;20208;-65
2021/03/23 08:09:18;;;;;;;96.13;45.73;;;8.40;94.20;;;;;;4425566;32;20170;-63
2021/03/23 08:11:54;;;;;;;100.47;44.93;;;8.30;94.80;;;;;;4350698;32;20153;-64
2021/03/23 08:14:36;;;;;;;103.13;45.33;;;8.40;94.80;;;;;;4350986;32;20160;-65
2021/03/23 08:17:19;;;;;;;91.57;43.17;;;8.50;94.90;;;;;;4345214;32;20242;-65
2021/03/23 08:20:19;;;;;;;89.30;43.03;;;8.70;94.70;;;;;;4349055;32;20157;-67
2021/03/23 08:22:58;;;;;;;92.90;42.37;;;8.80;94.20;;;;;;4306966;33;20192;-66
2021/03/23 08:25:38;;;;;;;93.50;42.10;;;8.90;93.90;;;;;;4308524;33;20165;-64
2021/03/23 08:28:26;;;;;;;85.30;41.97;;;8.90;93.70;;;;;;4306044;33;20190;-64
2021/03/23 08:31:16;;;;;;;83.00;42.97;;;9.00;93.60;;;;;;4309554;33;20154;-65
2021/03/23 08:33:56;;;;;;;90.27;42.57;;;8.90;93.50;;;;;;4308238;33;20170;-64
2021/03/23 08:36:48;;;;;;;83.20;40.77;;;8.70;94.10;;;;;;4310184;33;20157;-65
2021/03/23 08:39:28;;;;;;;78.60;40.13;;;8.80;94.00;;;;;;4310286;33;20162;-65
2021/03/23 08:42:03;;;;;;;80.03;41.27;;;8.70;94.00;;;;;;4312351;33;20232;-65
2021/03/23 08:44:34;;;;;;;80.13;40.27;;;8.90;93.90;;;;;;4307652;33;20260;-70
2021/03/23 08:47:10;;;;;;;77.53;39.90;;;9.00;93.80;;;;;;4305567;33;20154;-66
2021/03/23 08:49:40;;;;;;;80.67;39.27;;;9.00;93.70;;;;;;4354403;32;20175;-67
2021/03/23 08:52:18;;;;;;;77.63;40.33;;;9.20;93.40;;;;;;4366823;32;20561;-66
2021/03/23 08:54:48;;;;;;;84.20;41.40;;;9.10;93.40;;;;;;4370101;32;20174;-65
2021/03/23 08:57:14;;;;;;;85.47;41.87;;;9.10;93.20;;;;;;4364969;32;20152;-67
2021/03/23 08:59:59;;;;;;;89.70;42.47;;;9.10;93.30;;;;;;4402295;32;20195;-65
2021/03/23 09:02:47;;;;;;;83.57;40.10;;;9.20;93.30;;;;;;4426893;32;20170;-64
2021/03/23 09:05:51;;;;;;;78.70;40.80;;;9.30;93.30;;;;;;4429397;32;20143;-67
2021/03/23 09:08:39;;;;;;;82.53;40.50;;;9.40;92.90;;;;;;4428402;32;20162;-68
2021/03/23 09:11:09;;;;;;;78.37;40.23;;;9.50;92.80;;;;;;4428938;32;20222;-66
2021/03/23 09:14:12;;;;;;;77.57;40.23;;;9.50;92.60;;;;;;4427756;32;20256;-66
2021/03/23 09:17:15;;;;;;;87.57;41.87;;;9.70;92.60;;;;;;4427136;32;20159;-68
2021/03/23 09:20:17;;;;;;;75.23;38.93;;;9.80;92.30;;;;;;4429445;32;20201;-64
2021/03/23 09:22:46;;;;;;;69.60;37.67;;;10.00;91.80;;;;;;4428035;32;20148;-65
2021/03/23 09:25:49;;;;;;;75.60;38.93;;;10.20;91.60;;;;;;4425507;32;20454;-68
2021/03/23 09:28:46;;;;;;;66.60;36.03;;;10.70;91.00;;;;;;4426310;32;20620;-66
2021/03/23 09:31:17;;;;;;;74.60;36.20;;;11.10;90.10;;;;;;4418804;32;20282;-65
2021/03/23 09:33:54;;;;;;;76.10;38.07;;;11.10;89.80;;;;;;4427085;32;20148;-67
2021/03/23 09:36:48;;;;;;;72.33;35.87;;;11.00;89.90;;;;;;4426746;32;20171;-67
2021/03/23 09:39:46;;;;;;;74.00;38.30;;;11.00;90.00;;;;;;4423375;32;20156;-64
2021/03/23 09:42:26;;;;;;;68.37;36.67;;;10.70;90.20;;;;;;4427272;32;20151;-67
2021/03/23 09:45:24;;;;;;;74.20;35.80;;;10.70;90.40;;;;;;4432916;32;20235;-66
2021/03/23 09:48:01;;;;;;;72.43;36.17;;;10.80;90.00;;;;;;4369167;32;20157;-66
2021/03/23 09:50:42;;;;;;;68.93;36.27;;;10.60;90.10;;;;;;4368594;32;20180;-65
2021/03/23 09:53:15;;;;;;;64.80;35.87;;;10.60;90.30;;;;;;4374161;32;20586;-65
2021/03/23 09:55:42;;;;;;;71.80;40.43;;;10.60;90.40;;;;;;4369528;32;20190;-66
2021/03/23 09:58:14;;;;;;;64.87;36.47;;;10.30;90.60;;;;;;4376183;32;20171;-69
2021/03/23 10:00:41;;;;;;;68.67;36.97;;;10.30;90.50;;;;;;4356844;32;20231;-65
2021/03/23 10:03:34;;;;;;;76.27;40.23;;;10.10;90.80;;;;;;4365399;32;20228;-66
2021/03/23 10:06:04;;;;;;;69.80;38.03;;;10.20;90.80;;;;;;4366696;32;20232;-67
2021/03/23 10:08:33;;;;;;;67.73;35.80;;;10.60;90.40;;;;;;4371392;32;20176;-65
2021/03/23 10:11:12;;;;;;;68.23;37.03;;;10.90;89.40;;;;;;4369836;32;20169;-67
2021/03/23 10:13:43;;;;;;;62.27;36.97;;;11.10;88.80;;;;;;4370239;32;20660;-65
2021/03/23 10:16:24;;;;;;;72.50;37.40;;;11.40;87.70;;;;;;4370388;32;20580;-67
2021/03/23 10:18:51;;;;;;;63.43;34.80;;;11.40;87.20;;;;;;4370119;32;20161;-71
2021/03/23 10:21:25;;;;;;;65.80;39.03;;;11.50;86.50;;;;;;4370033;32;20204;-67
2021/03/23 10:23:55;;;;;;;63.73;35.87;;;11.20;86.90;;;;;;4381633;32;20533;-68
2021/03/23 10:26:23;;;;;;;68.17;37.97;;;11.30;87.40;;;;;;4425594;32;20640;-67
2021/03/23 10:28:51;;;;;;;74.97;38.50;;;11.30;87.40;;;;;;4427881;32;20154;-67
2021/03/23 10:31:34;;;;;;;66.90;38.20;;;11.10;87.90;;;;;;4426958;32;20281;-68
2021/03/23 10:34:07;;;;;;;62.73;36.27;;;11.30;87.70;;;;;;4425538;32;20214;-67
2021/03/23 10:36:45;;;;;;;67.50;38.90;;;11.70;87.10;;;;;;4427351;32;20809;-67
2021/03/23 10:39:47;;;;;;;63.60;37.20;;;11.70;86.30;;;;;;4422973;32;20224;-65
2021/03/23 10:42:22;;;;;;;70.93;39.97;;;11.90;84.90;;;;;;4367952;32;20234;-70
2021/03/23 10:44:50;;;;;;;60.17;36.73;;;12.40;83.60;;;;;;4367931;32;20684;-68
2021/03/23 10:47:33;;;;;;;61.67;37.83;;;12.60;82.80;;;;;;4366670;32;20173;-63
2021/03/23 10:50:18;;;;;;;58.23;34.20;;;12.70;81.50;;;;;;4368017;32;20250;-66
2021/03/23 10:52:44;;;;;;;63.13;37.70;;;12.50;81.80;;;;;;4368592;32;21120;-69
2021/03/23 10:55:16;;;;;;;58.93;36.77;;;12.30;82.90;;;;;;4368825;32;20306;-67
2021/03/23 10:57:43;;;;;;;58.47;34.47;;;12.20;82.70;;;;;;4368693;32;20698;-69
2021/03/23 11:00:19;;;;;;;65.10;37.23;;;12.20;84.00;;;;;;4368552;32;20625;-67
2021/03/23 11:02:46;;;;;;;59.60;36.10;;;11.80;83.90;;;;;;4366539;32;20197;-69
2021/03/23 11:05:16;;;;;;;63.83;38.33;;;11.90;84.20;;;;;;4368614;32;20175;-67
2021/03/23 11:08:00;;;;;;;64.53;37.47;;;11.80;83.70;;;;;;4367177;32;20160;-69
2021/03/23 11:10:30;;;;;;;59.73;36.83;;;11.70;84.20;;;;;;4367603;32;20234;-69
2021/03/23 11:12:57;;;;;;;62.93;37.27;;;11.80;84.30;;;;;;4372361;32;20179;-69
2021/03/23 11:15:24;;;;;;;64.60;36.97;;;11.70;84.70;;;;;;4371149;32;20170;-67
2021/03/23 11:17:51;;;;;;;66.50;38.47;;;11.30;85.30;;;;;;4373146;32;20178;-66
2021/03/23 11:20:24;;;;;;;61.73;36.33;;;11.20;86.00;;;;;;4431435;32;20202;-68
2021/03/23 11:22:52;;;;;;;66.57;39.37;;;11.40;86.40;;;;;;4430320;32;20143;-69
2021/03/23 11:25:21;;;;;;;63.37;37.17;;;11.50;85.30;;;;;;4435104;32;20135;-67
2021/03/23 11:27:47;;;;;;;67.63;37.20;;;11.50;85.70;;;;;;4430764;32;20134;-66
2021/03/23 11:30:15;;;;;;;66.17;38.60;;;11.80;85.50;;;;;;4435688;32;20636;-67
2021/03/23 11:32:44;;;;;;;59.97;37.73;;;12.00;84.00;;;;;;4434822;32;20154;-66
2021/03/23 11:35:12;;;;;;;66.43;40.00;;;12.20;83.20;;;;;;4435933;32;20164;-66
2021/03/23 11:37:38;;;;;;;60.73;37.20;;;12.20;82.00;;;;;;4432081;32;20184;-69
2021/03/23 11:40:06;;;;;;;58.07;36.17;;;12.20;83.00;;;;;;4432760;32;20165;-70
2021/03/23 11:42:40;;;;;;;62.03;36.87;;;12.50;82.40;;;;;;4432961;32;20230;-66
2021/03/23 11:45:17;;;;;;;65.00;37.57;;;12.40;82.10;;;;;;4434811;32;20226;-68
2021/03/23 11:47:59;;;;;;;61.80;37.17;;;12.60;82.50;;;;;;4435378;32;20199;-67
2021/03/23 11:50:29;;;;;;;62.30;36.00;;;12.30;82.60;;;;;;4420214;32;20491;-68
2021/03/23 11:52:56;;;;;;;63.47;35.73;;;12.50;83.20;;;;;;4429237;32;20691;-66
2021/03/23 11:55:25;;;;;;;61.40;35.70;;;12.80;82.40;;;;;;4431977;32;20243;-69
2021/03/23 11:57:52;;;;;;;65.17;38.90;;;12.80;81.60;;;;;;4435387;32;20432;-70
2021/03/23 12:00:21;;;;;;;62.83;36.43;;;13.00;81.10;;;;;;4435914;32;20510;-66
2021/03/23 12:02:48;;;;;;;65.23;37.40;;;13.20;80.50;;;;;;4435179;32;20143;-65
2021/03/23 12:05:15;;;;;;;72.77;37.87;;;13.30;80.50;;;;;;4438877;32;20189;-65
2021/03/23 12:08:16;;;;;;;62.27;36.97;;;13.20;80.10;;;;;;4426877;32;20209;-67
2021/03/23 12:10:49;;;;;;;65.50;38.37;;;12.80;81.50;;;;;;4370538;32;20282;-68
2021/03/23 12:13:22;;;;;;;63.07;36.23;;;12.90;82.20;;;;;;4370464;32;20196;-70
2021/03/23 12:15:56;;;;;;;60.97;35.20;;;12.90;81.80;;;;;;4370282;32;20172;-68
2021/03/23 12:18:23;;;;;;;59.93;35.03;;;12.80;81.90;;;;;;4367053;32;20236;-68
2021/03/23 12:20:56;;;;;;;57.13;34.97;;;13.00;81.60;;;;;;4367588;32;20156;-68
2021/03/23 12:23:23;;;;;;;61.33;35.20;;;13.20;82.20;;;;;;4371245;32;20195;-68
2021/03/23 12:25:52;;;;;;;58.73;33.93;;;13.20;81.30;;;;;;4370246;32;20260;-69
2021/03/23 12:28:18;;;;;;;60.57;36.83;;;13.10;82.10;;;;;;4370762;32;20180;-71
2021/03/23 12:30:44;;;;;;;58.83;36.27;;;13.20;81.60;;;;;;4371927;32;20239;-69
2021/03/23 12:33:11;;;;;;;68.13;39.27;;;12.60;83.00;;;;;;4369778;32;20211;-67
2021/03/23 12:35:37;;;;;;;64.63;38.50;;;12.30;83.60;;;;;;4371802;32;20314;-66
2021/03/23 12:38:06;;;;;;;66.57;37.97;;;12.00;84.90;;;;;;4368868;32;20175;-69
2021/03/23 12:40:34;;;;;;;61.70;38.57;;;12.00;85.30;;;;;;4371897;32;20156;-68
2021/03/23 12:43:01;;;;;;;67.63;37.63;;;11.90;85.20;;;;;;4372123;32;20156;-68
2021/03/23 12:45:30;;;;;;;65.93;37.77;;;11.90;85.60;;;;;;4379299;32;20208;-67
2021/03/23 12:47:57;;;;;;;68.17;37.93;;;11.70;87.20;;;;;;4429346;32;20211;-68
2021/03/23 12:50:23;;;;;;;72.87;36.97;;;11.70;87.30;;;;;;4428043;32;20159;-70
2021/03/23 12:52:50;;;;;;;68.77;38.50;;;11.80;87.40;;;;;;4427217;32;20155;-69
2021/03/23 12:55:20;;;;;;;67.17;38.83;;;12.00;87.20;;;;;;4427973;32;20239;-68
2021/03/23 12:57:48;;;;;;;71.90;37.27;;;12.20;86.30;;;;;;4429287;32;20168;-66
2021/03/23 13:00:23;;;;;;;66.97;38.87;;;11.80;86.70;;;;;;4429715;32;20159;-68